Newport, NC (28570)

7:22 AM EDT on April 28, 2017 (GMT -0400)
Southpark | | Change Station
Active Advisory: Beach Hazard Statement

Elev 19 ft 34.79 °N, 76.86 °W | Updated 1 minute ago

Mostly Cloudy
Mostly Cloudy
73.8 °F
Feels Like 71 °F
N
1.0
Wind Variable Wind from North
Gusts 1.0 mph

Today
High -- | Low -- °F
--% Chance of Precip.
Yesterday
High -- | Low -- °F
Precip. -- in
Pressure 30.05 in
Visibility 10.0 miles
Clouds Scattered Clouds 1200 ft
Mostly Cloudy 7000 ft
Mostly Cloudy 8000 ft
Heat Index 71 °F
Dew Point 72 °F
Humidity 95%
Rainfall 0.00 in
Snow Depth Not available.
6:19 AM 7:50 PM
Waxing Crescent, 6% visible
SPECI KNKT 281041Z 19009KT 10SM SCT012 BKN070 BKN080 24/22 A3005 RMK AO2 T02390217
Pressure 30.05 in
Visibility 10.0 miles
Clouds Scattered Clouds 1200 ft
Mostly Cloudy 7000 ft
Mostly Cloudy 8000 ft
Heat Index 71 °F
Dew Point 72 °F
Humidity 95%
Rainfall 0.00 in
Snow Depth Not available.
6:19 AM 7:50 PM
Waxing Crescent, 6% visible
SPECI KNKT 281041Z 19009KT 10SM SCT012 BKN070 BKN080 24/22 A3005 RMK AO2 T02390217

Get Your Daily Forecast Email!

Thanks for signing up!

Be on the lookout for a verification email in your inbox.

You'll start receiving severe weather alerts in your inbox..

×

10-Day Weather Forecast

Almanac

Astronomy

Apr. 28, 2017 Rise Set
Actual Time
Civil Twilight
Nautical Twilight
Astronomical Twilight
Moon
Length of Visible Light
Length of Day
Tomorrow will be .
, % of the Moon is Illuminated

Today's Extremes

State Highs State Lows

Community

WunderPhotos

WunderBlog® & News

Nearby

Air Quality

  Air Quality AQ Index Pollutant
Not available.

Snow Depth

Station Depth Elevation

Earthquake Activity

City Distance Mag. Time & Date
Minimum magnitude displayed is 2.5.

Coastal Water Temperatures

Place Temperature

Stations

Nearby Weather Stations

Station Location Temp. Windchill Dew Point Humidity Wind Precip. Elev Updated Type
                   

Watches & Warnings

Beach Hazard Statement
Issued: 4:22 AM EDT Apr. 28, 2017 – National Weather Service

... Beach hazards statement remains in effect through this
evening...

* hazards... high rip current risk.

* Location... especially east facing beaches.

* Timing and tides... the most likely time for life threatening rip
currents will be a couple hours either side of low tide. Low
tide this afternoon will be around 3 PM.

Precautionary/preparedness actions...

If caught in a rip current remain calm. Don't fight the current.
Swim in a direction following the shoreline. When out of the
current, swim back to shore. If tired, float or tread water until
out of the rip current. If unable to escape, face the shore and
call or wave for help.